METAR / TAF
Helsinki-Vantaa
HELSINKI/VANTAA
Metar
EFHK 201150Z 28007KT 240V330 9999 FEW040TCU SCT045 11/01 Q1016 NOSIG

11:50 UTC

Wind: 280° 7kt

Visibility: 9999 m

Sky: FEW 4000 ft

Temp: 11 deg C / 51.8 deg F

Dewpoint: 1 deg C / 33.8 deg F

Pressure: 1016 hPa

TAF
TAF EFHK 201122Z 2012/2112 28007KT 9999 FEW040 TEMPO 2012/2014 FEW040TCU TEMPO 2103/2106 6000 RA TEMPO 2106/2112 3000 -RADZ BKN006
Helsinki, Malmi
HELSINKI/MALMI
Turku
TURKU/ABO
Metar
EFTU 201150Z AUTO 27010KT CAVOK 11/02 Q1016

11:50 UTC

Wind: 270° 10kt

Visibility:

Sky:

Temp: 11 deg C / 51.8 deg F

Dewpoint: 2 deg C / 35.6 deg F

Pressure: 1016 hPa

TAF
TAF EFTU 201122Z 2012/2112 28007KT 9999 SCT035 TEMPO 2012/2014 FEW030TCU TEMPO 2022/2106 6000 RADZ BKN009 PROB30 TEMPO 2022/2106 3000 BR
Tampere, Pirkkala
TAMPERE/PIRKKALA
Metar
EFTP 201150Z 25008KT 9999 SCT038 BKN200 09/01 Q1015

11:50 UTC

Wind: 250° 8kt

Visibility: 9999 m

Sky: SCT 3800 ft

Temp: 9 deg C / 48.2 deg F

Dewpoint: 1 deg C / 33.8 deg F

Pressure: 1015 hPa

TAF
TAF EFTP 201137Z 2012/2112 27006KT CAVOK BECMG 2101/2103 3000 -RA OVC005 TEMPO 2103/2111 1200 RADZ OVC003
Maarianhamina
MARIEHAMN/ALAND
Metar
EFMA 201150Z AUTO 24005KT 160V260 CAVOK 10/04 Q1017

11:50 UTC

Wind: 240° 5kt

Visibility:

Sky:

Temp: 10 deg C / 50 deg F

Dewpoint: 4 deg C / 39.2 deg F

Pressure: 1017 hPa

TAF
TAF EFMA 201122Z 2012/2021 23009KT CAVOK PROB40 TEMPO 2014/2021 7000 RA
Pori
PORI (MIL/CIV)
Metar
EFPO 201150Z AUTO 26008KT 220V290 9999 SCT036/// 11/02 Q1015

11:50 UTC

Wind: 260° 8kt

Visibility: 9999 m

Sky: SCT 3600 ft

Temp: 11 deg C / 51.8 deg F

Dewpoint: 2 deg C / 35.6 deg F

Pressure: 1015 hPa

TAF
TAF EFPO 201137Z 2012/2021 27009KT 9999 BKN040 TEMPO 2020/2021 5000 RA BKN013
Vaasa
VAASA
Metar
EFVA 201150Z AUTO 27007KT 240V300 CAVOK 09/00 Q1014

11:50 UTC

Wind: 270° 7kt

Visibility:

Sky:

Temp: 9 deg C / 48.2 deg F

Dewpoint: 0 deg C / 32 deg F

Pressure: 1014 hPa

TAF
TAF EFVA 201137Z 2012/2112 27008KT 9999 SCT030 PROB30 TEMPO 2018/2102 7000 -RA BECMG 2102/2105 5000 RA BKN010 TEMPO 2104/2109 2000 -RADZ BKN005
Kruunupyy
KRUUNUPYY
Metar
EFKK 201150Z AUTO 25007KT 200V310 CAVOK 08/02 Q1013

11:50 UTC

Wind: 250° 7kt

Visibility:

Sky:

Temp: 8 deg C / 46.4 deg F

Dewpoint: 2 deg C / 35.6 deg F

Pressure: 1013 hPa

TAF
TAF EFKK 201137Z 2012/2021 25006KT 9999 SCT030
Jyväskylä, Tikkakoski
JYVASKYLA (MIL/C
Metar
EFJY 201150Z AUTO 26008KT 220V290 9999 BKN045 09/M01 Q1013

11:50 UTC

Wind: 260° 8kt

Visibility: 9999 m

Sky: BKN 4500 ft

Temp: 9 deg C / 48.2 deg F

Dewpoint: -1 deg C / 30.2 deg F

Pressure: 1013 hPa

TAF
TAF EFJY 201137Z 2012/2112 27007KT 9999 SCT040 TEMPO 2106/2109 7000 -RA BKN014
Kuopio
KUOPIO (MIL/CIV)
Metar
EFKU 201150Z 30013KT 9999 -SHRA SCT035CB 08/00 Q1012

11:50 UTC

Wind: 300° 13kt

Visibility: 9999 m

Sky: SCT 3500 ft

Temp: 8 deg C / 46.4 deg F

Dewpoint: 0 deg C / 32 deg F

Pressure: 1012 hPa

TAF
TAF EFKU 201129Z 2012/2112 28009KT 9999 SCT040 TEMPO 2012/2015 FEW040CB
Joensuu
JOENSUU
Metar
EFJO 201150Z AUTO 27009KT CAVOK 09/M00 Q1011

11:50 UTC

Wind: 270° 9kt

Visibility:

Sky:

Temp: 9 deg C / 48.2 deg F

Dewpoint: 0 deg C / 32 deg F

Pressure: 1011 hPa

TAF
TAF EFJO 201129Z 2012/2021 27008KT 9999 SCT030 TEMPO 2012/2016 SCT030CB
Halli
HALLI (FIN-AFB)
Metar
EFHA 201150Z AUTO 27014KT 9999 SCT040 09/M00 Q1014

11:50 UTC

Wind: 270° 14kt

Visibility: 9999 m

Sky: SCT 4000 ft

Temp: 9 deg C / 48.2 deg F

Dewpoint: 0 deg C / 32 deg F

Pressure: 1014 hPa

TAF
TAF EFHA 201137Z 2012/2014 29009KT 9999 BKN035
Utti
UTTI (FIN-AFB)
Metar
EFUT 201150Z AUTO 27012KT 250V310 CAVOK 10/M02 Q1014

11:50 UTC

Wind: 270° 12kt

Visibility:

Sky:

Temp: 10 deg C / 50 deg F

Dewpoint: -2 deg C / 28.4 deg F

Pressure: 1014 hPa

TAF
TAF EFUT 200827Z 2009/2012 29008KT CAVOK PROB30 2010/2012 FEW030TCU
Mikkeli
MIKKELI
Metar
EFMI 201150Z AUTO 28005KT 240V350 9999 SCT044 09/M00 Q1013

11:50 UTC

Wind: 280° 5kt

Visibility: 9999 m

Sky: SCT 4400 ft

Temp: 9 deg C / 48.2 deg F

Dewpoint: 0 deg C / 32 deg F

Pressure: 1013 hPa

Savonlinna
SAVONLINNA (AUT)
Metar
EFSA 201150Z AUTO 27007KT 9999 SCT025 SCT068 08/02 Q1012

11:50 UTC

Wind: 270° 7kt

Visibility: 9999 m

Sky: SCT 2500 ft

Temp: 8 deg C / 46.4 deg F

Dewpoint: 2 deg C / 35.6 deg F

Pressure: 1012 hPa

TAF
TAF EFSA 201129Z 2012/2019 27008KT 9999 BKN020 TEMPO 2012/2016 FEW020CB
Lappeenranta
LAPPEENRANTA
Metar
EFLP 201150Z AUTO 25008KT 220V300 CAVOK 10/M01 Q1013

11:50 UTC

Wind: 250° 8kt

Visibility:

Sky:

Temp: 10 deg C / 50 deg F

Dewpoint: -1 deg C / 30.2 deg F

Pressure: 1013 hPa

TAF
TAF EFLP 201129Z 2012/2021 27009KT CAVOK
Oulu
OULU/ULEABORG
Metar
EFOU 201150Z AUTO 29012KT CAVOK 09/M00 Q1011

11:50 UTC

Wind: 290° 12kt

Visibility:

Sky:

Temp: 9 deg C / 48.2 deg F

Dewpoint: 0 deg C / 32 deg F

Pressure: 1011 hPa

TAF
TAF EFOU 201125Z 2012/2112 30010KT 9999 SCT030 BECMG 2019/2021 20005KT
Kemi
KEMI
Metar
EFKE 201150Z AUTO 29006KT 240V010 CAVOK 09/M01 Q1011

11:50 UTC

Wind: 290° 6kt

Visibility:

Sky:

Temp: 9 deg C / 48.2 deg F

Dewpoint: -1 deg C / 30.2 deg F

Pressure: 1011 hPa

TAF
TAF EFKE 201125Z 2012/2018 33008KT CAVOK
Rovaniemi
ROVANIEMI (CIV/M
Metar
EFRO 201150Z 31010KT 9999 FEW035 08/00 Q1009

11:50 UTC

Wind: 310° 10kt

Visibility: 9999 m

Sky: FEW 3500 ft

Temp: 8 deg C / 46.4 deg F

Dewpoint: 0 deg C / 32 deg F

Pressure: 1009 hPa

TAF
TAF EFRO 201125Z 2012/2112 31009KT 9999 SCT025 TEMPO 2012/2015 FEW040TCU TEMPO 2104/2106 2000 BCFG TEMPO 2106/2108 7000 -SHRASN TEMPO 2109/2112 FEW020CB
Enontekiö
ENONTEKIO
Ivalo
IVALO
Metar
EFIV 201150Z AUTO 31011KT 280V360 9999 FEW033 BKN065 05/M02 Q1007

11:50 UTC

Wind: 310° 11kt

Visibility: 9999 m

Sky: FEW 3300 ft

Temp: 5 deg C / 41 deg F

Dewpoint: -2 deg C / 28.4 deg F

Pressure: 1007 hPa

TAF
TAF EFIV 201125Z 2012/2017 31010KT 9999 BKN030 TEMPO 2012/2015 FEW040TCU
Kittilä
KITTILA
Metar
EFKT 201150Z AUTO 33006KT 280V010 9999 FEW029 07/M00 Q1009

11:50 UTC

Wind: 330° 6kt

Visibility: 9999 m

Sky: FEW 2900 ft

Temp: 7 deg C / 44.6 deg F

Dewpoint: 0 deg C / 32 deg F

Pressure: 1009 hPa

TAF
TAF EFKT 201125Z 2012/2017 33008KT 9999 BKN030 TEMPO 2012/2015 FEW030TCU
Kuusamo
KUUSAMO
Metar
EFKS 201150Z 31014KT 280V350 9999 SCT036 06/M03 Q1007

11:50 UTC

Wind: 310° 14kt

Visibility: 9999 m

Sky: SCT 3600 ft

Temp: 6 deg C / 42.8 deg F

Dewpoint: -3 deg C / 26.6 deg F

Pressure: 1007 hPa

TAF
TAF EFKS 201125Z 2012/2020 32013KT 9999 BKN030
Kajaani
KAJAANI
Metar
EFKI 201150Z AUTO 29011KT 270V330 9999 SCT032 08/00 Q1010

11:50 UTC

Wind: 290° 11kt

Visibility: 9999 m

Sky: SCT 3200 ft

Temp: 8 deg C / 46.4 deg F

Dewpoint: 0 deg C / 32 deg F

Pressure: 1010 hPa

TAF
TAF EFKI 201129Z 2012/2021 30013KT 9999 SCT030
Varkaus
VARKAUS
Seinäjoki
SEINAJOKI-ILMAJO
Metar
EFSI 201150Z AUTO 27006KT 200V320 CAVOK 09/01 Q1014

11:50 UTC

Wind: 270° 6kt

Visibility:

Sky:

Temp: 9 deg C / 48.2 deg F

Dewpoint: 1 deg C / 33.8 deg F

Pressure: 1014 hPa

Print Friendly, PDF & Email